sensor_id;sensor_type;location;lat;lon;timestamp;P1;durP1;ratioP1;P2;durP2;ratioP2
10469;SDS011;5282;47.052;15.458;2023-05-10T00:02:18;4.33;;;4.13;;
10469;SDS011;5282;47.052;15.458;2023-05-10T00:04:47;4.00;;;3.83;;
10469;SDS011;5282;47.052;15.458;2023-05-10T00:07:16;3.87;;;3.57;;
10469;SDS011;5282;47.052;15.458;2023-05-10T00:09:47;3.87;;;3.67;;
10469;SDS011;5282;47.052;15.458;2023-05-10T00:12:15;4.10;;;3.90;;
10469;SDS011;5282;47.052;15.458;2023-05-10T00:14:48;4.20;;;4.00;;
10469;SDS011;5282;47.052;15.458;2023-05-10T00:17:22;4.27;;;4.17;;
10469;SDS011;5282;47.052;15.458;2023-05-10T00:19:50;3.80;;;3.60;;
10469;SDS011;5282;47.052;15.458;2023-05-10T00:22:17;4.00;;;3.90;;
10469;SDS011;5282;47.052;15.458;2023-05-10T00:24:49;4.33;;;4.13;;
10469;SDS011;5282;47.052;15.458;2023-05-10T00:27:19;4.10;;;4.00;;
10469;SDS011;5282;47.052;15.458;2023-05-10T00:29:47;4.40;;;4.20;;
10469;SDS011;5282;47.052;15.458;2023-05-10T00:32:17;4.07;;;3.97;;
10469;SDS011;5282;47.052;15.458;2023-05-10T00:34:47;4.57;;;4.17;;
10469;SDS011;5282;47.052;15.458;2023-05-10T00:37:20;4.70;;;4.37;;
10469;SDS011;5282;47.052;15.458;2023-05-10T00:39:51;4.33;;;4.20;;
10469;SDS011;5282;47.052;15.458;2023-05-10T00:42:19;4.20;;;4.00;;
10469;SDS011;5282;47.052;15.458;2023-05-10T00:44:49;4.17;;;3.87;;
10469;SDS011;5282;47.052;15.458;2023-05-10T00:47:16;3.80;;;3.70;;
10469;SDS011;5282;47.052;15.458;2023-05-10T00:49:44;3.80;;;3.63;;
10469;SDS011;5282;47.052;15.458;2023-05-10T00:52:14;4.20;;;4.00;;
10469;SDS011;5282;47.052;15.458;2023-05-10T00:54:47;4.20;;;4.00;;
10469;SDS011;5282;47.052;15.458;2023-05-10T00:57:16;4.13;;;3.90;;
10469;SDS011;5282;47.052;15.458;2023-05-10T00:59:45;4.20;;;3.90;;
10469;SDS011;5282;47.052;15.458;2023-05-10T01:02:12;4.50;;;4.30;;
10469;SDS011;5282;47.052;15.458;2023-05-10T01:04:39;4.10;;;3.90;;
10469;SDS011;5282;47.052;15.458;2023-05-10T01:07:07;4.30;;;4.10;;
10469;SDS011;5282;47.052;15.458;2023-05-10T01:09:33;4.80;;;4.50;;
10469;SDS011;5282;47.052;15.458;2023-05-10T01:12:01;4.50;;;4.20;;
10469;SDS011;5282;47.052;15.458;2023-05-10T01:14:30;4.57;;;4.27;;
10469;SDS011;5282;47.052;15.458;2023-05-10T01:16:57;3.83;;;3.70;;
10469;SDS011;5282;47.052;15.458;2023-05-10T01:19:25;3.80;;;3.70;;
10469;SDS011;5282;47.052;15.458;2023-05-10T01:21:57;4.60;;;4.23;;
10469;SDS011;5282;47.052;15.458;2023-05-10T01:24:38;4.30;;;4.10;;
10469;SDS011;5282;47.052;15.458;2023-05-10T01:27:25;4.67;;;4.47;;
10469;SDS011;5282;47.052;15.458;2023-05-10T01:30:33;4.40;;;4.20;;
10469;SDS011;5282;47.052;15.458;2023-05-10T01:33:17;4.70;;;4.50;;
10469;SDS011;5282;47.052;15.458;2023-05-10T01:35:59;4.47;;;4.27;;
10469;SDS011;5282;47.052;15.458;2023-05-10T01:38:33;4.43;;;4.27;;
10469;SDS011;5282;47.052;15.458;2023-05-10T01:41:11;4.53;;;4.33;;
10469;SDS011;5282;47.052;15.458;2023-05-10T01:43:44;5.07;;;4.77;;
10469;SDS011;5282;47.052;15.458;2023-05-10T01:46:21;4.40;;;4.20;;
10469;SDS011;5282;47.052;15.458;2023-05-10T01:48:55;4.67;;;4.47;;
10469;SDS011;5282;47.052;15.458;2023-05-10T01:51:25;4.83;;;4.53;;
10469;SDS011;5282;47.052;15.458;2023-05-10T01:53:58;4.87;;;4.47;;
10469;SDS011;5282;47.052;15.458;2023-05-10T01:56:29;4.43;;;4.10;;
10469;SDS011;5282;47.052;15.458;2023-05-10T01:58:59;4.57;;;4.23;;
10469;SDS011;5282;47.052;15.458;2023-05-10T02:01:32;4.37;;;4.13;;
10469;SDS011;5282;47.052;15.458;2023-05-10T02:04:03;4.20;;;4.00;;
10469;SDS011;5282;47.052;15.458;2023-05-10T02:06:31;6.23;;;4.40;;
10469;SDS011;5282;47.052;15.458;2023-05-10T02:09:00;4.37;;;4.07;;
10469;SDS011;5282;47.052;15.458;2023-05-10T02:11:31;4.40;;;4.00;;
10469;SDS011;5282;47.052;15.458;2023-05-10T02:14:02;4.40;;;4.20;;
10469;SDS011;5282;47.052;15.458;2023-05-10T02:16:29;4.07;;;3.87;;
10469;SDS011;5282;47.052;15.458;2023-05-10T02:18:59;4.17;;;3.97;;
10469;SDS011;5282;47.052;15.458;2023-05-10T02:21:30;4.50;;;4.30;;
10469;SDS011;5282;47.052;15.458;2023-05-10T02:23:58;3.73;;;3.53;;
10469;SDS011;5282;47.052;15.458;2023-05-10T02:26:28;4.13;;;3.93;;
10469;SDS011;5282;47.052;15.458;2023-05-10T02:29:01;4.40;;;4.10;;
10469;SDS011;5282;47.052;15.458;2023-05-10T02:31:29;4.40;;;4.20;;
10469;SDS011;5282;47.052;15.458;2023-05-10T02:33:58;4.67;;;4.47;;
10469;SDS011;5282;47.052;15.458;2023-05-10T02:36:26;4.10;;;3.90;;
10469;SDS011;5282;47.052;15.458;2023-05-10T02:38:56;4.60;;;4.30;;
10469;SDS011;5282;47.052;15.458;2023-05-10T02:41:25;4.57;;;4.30;;
10469;SDS011;5282;47.052;15.458;2023-05-10T02:43:53;4.20;;;4.00;;
10469;SDS011;5282;47.052;15.458;2023-05-10T02:46:25;4.23;;;3.93;;
10469;SDS011;5282;47.052;15.458;2023-05-10T02:48:52;4.23;;;4.03;;
10469;SDS011;5282;47.052;15.458;2023-05-10T02:51:19;4.30;;;4.10;;
10469;SDS011;5282;47.052;15.458;2023-05-10T02:53:51;4.07;;;3.87;;
10469;SDS011;5282;47.052;15.458;2023-05-10T02:56:23;3.87;;;3.57;;
10469;SDS011;5282;47.052;15.458;2023-05-10T02:58:55;4.27;;;4.07;;
10469;SDS011;5282;47.052;15.458;2023-05-10T03:01:21;4.33;;;4.13;;
10469;SDS011;5282;47.052;15.458;2023-05-10T03:03:48;4.20;;;4.00;;
10469;SDS011;5282;47.052;15.458;2023-05-10T03:06:15;4.40;;;4.13;;
10469;SDS011;5282;47.052;15.458;2023-05-10T03:08:42;4.60;;;4.40;;
10469;SDS011;5282;47.052;15.458;2023-05-10T03:11:14;4.63;;;4.43;;
10469;SDS011;5282;47.052;15.458;2023-05-10T03:13:56;4.10;;;3.90;;
10469;SDS011;5282;47.052;15.458;2023-05-10T03:16:35;4.53;;;4.33;;
10469;SDS011;5282;47.052;15.458;2023-05-10T03:19:06;3.90;;;3.80;;
10469;SDS011;5282;47.052;15.458;2023-05-10T03:21:41;4.03;;;3.87;;
10469;SDS011;5282;47.052;15.458;2023-05-10T03:24:15;5.10;;;4.67;;
10469;SDS011;5282;47.052;15.458;2023-05-10T03:26:44;4.53;;;4.10;;
10469;SDS011;5282;47.052;15.458;2023-05-10T03:29:13;4.07;;;3.77;;
10469;SDS011;5282;47.052;15.458;2023-05-10T03:31:41;4.63;;;4.33;;
10469;SDS011;5282;47.052;15.458;2023-05-10T03:34:08;4.77;;;4.50;;
10469;SDS011;5282;47.052;15.458;2023-05-10T03:36:35;4.90;;;4.60;;
10469;SDS011;5282;47.052;15.458;2023-05-10T03:39:02;5.40;;;5.00;;
10469;SDS011;5282;47.052;15.458;2023-05-10T03:41:29;4.53;;;4.33;;
10469;SDS011;5282;47.052;15.458;2023-05-10T03:43:56;4.87;;;4.67;;
10469;SDS011;5282;47.052;15.458;2023-05-10T03:46:24;5.10;;;4.70;;
10469;SDS011;5282;47.052;15.458;2023-05-10T03:48:53;4.97;;;4.57;;
10469;SDS011;5282;47.052;15.458;2023-05-10T03:51:20;5.20;;;4.80;;
10469;SDS011;5282;47.052;15.458;2023-05-10T03:53:47;4.73;;;4.53;;
10469;SDS011;5282;47.052;15.458;2023-05-10T03:56:14;4.93;;;4.73;;
10469;SDS011;5282;47.052;15.458;2023-05-10T03:58:42;4.90;;;4.60;;
10469;SDS011;5282;47.052;15.458;2023-05-10T04:01:10;4.77;;;4.57;;
10469;SDS011;5282;47.052;15.458;2023-05-10T04:03:39;4.40;;;4.20;;
10469;SDS011;5282;47.052;15.458;2023-05-10T04:06:06;4.37;;;4.17;;
10469;SDS011;5282;47.052;15.458;2023-05-10T04:08:36;4.70;;;4.50;;
10469;SDS011;5282;47.052;15.458;2023-05-10T04:11:06;5.23;;;4.73;;
10469;SDS011;5282;47.052;15.458;2023-05-10T04:13:33;4.67;;;4.47;;
10469;SDS011;5282;47.052;15.458;2023-05-10T04:16:00;5.03;;;4.83;;
10469;SDS011;5282;47.052;15.458;2023-05-10T04:18:27;4.73;;;4.50;;
10469;SDS011;5282;47.052;15.458;2023-05-10T04:20:58;5.00;;;4.60;;
10469;SDS011;5282;47.052;15.458;2023-05-10T04:23:24;4.60;;;4.30;;
10469;SDS011;5282;47.052;15.458;2023-05-10T04:25:52;4.77;;;4.57;;
10469;SDS011;5282;47.052;15.458;2023-05-10T04:28:18;4.77;;;4.47;;
10469;SDS011;5282;47.052;15.458;2023-05-10T04:30:49;4.83;;;4.63;;
10469;SDS011;5282;47.052;15.458;2023-05-10T04:33:16;4.57;;;4.37;;
10469;SDS011;5282;47.052;15.458;2023-05-10T04:35:42;4.90;;;4.60;;
10469;SDS011;5282;47.052;15.458;2023-05-10T04:38:11;5.20;;;4.80;;
10469;SDS011;5282;47.052;15.458;2023-05-10T04:40:38;5.30;;;4.80;;
10469;SDS011;5282;47.052;15.458;2023-05-10T04:43:07;4.97;;;4.57;;
10469;SDS011;5282;47.052;15.458;2023-05-10T04:45:33;4.30;;;4.10;;
10469;SDS011;5282;47.052;15.458;2023-05-10T04:48:00;4.40;;;4.20;;
10469;SDS011;5282;47.052;15.458;2023-05-10T04:50:27;4.60;;;4.13;;
10469;SDS011;5282;47.052;15.458;2023-05-10T04:52:54;4.27;;;4.07;;
10469;SDS011;5282;47.052;15.458;2023-05-10T04:55:22;4.70;;;4.50;;
10469;SDS011;5282;47.052;15.458;2023-05-10T04:57:49;4.87;;;4.47;;
10469;SDS011;5282;47.052;15.458;2023-05-10T05:00:16;4.63;;;4.43;;
10469;SDS011;5282;47.052;15.458;2023-05-10T05:02:44;4.23;;;3.90;;
10469;SDS011;5282;47.052;15.458;2023-05-10T05:05:11;4.53;;;4.33;;
10469;SDS011;5282;47.052;15.458;2023-05-10T05:07:38;4.97;;;4.63;;
10469;SDS011;5282;47.052;15.458;2023-05-10T05:10:05;4.73;;;4.50;;
10469;SDS011;5282;47.052;15.458;2023-05-10T05:12:34;4.60;;;4.30;;
10469;SDS011;5282;47.052;15.458;2023-05-10T05:15:01;4.60;;;4.40;;
10469;SDS011;5282;47.052;15.458;2023-05-10T05:17:29;4.73;;;4.43;;
10469;SDS011;5282;47.052;15.458;2023-05-10T05:19:56;4.47;;;4.17;;
10469;SDS011;5282;47.052;15.458;2023-05-10T05:22:23;5.00;;;4.67;;
10469;SDS011;5282;47.052;15.458;2023-05-10T05:24:54;4.87;;;4.47;;
10469;SDS011;5282;47.052;15.458;2023-05-10T05:27:20;4.40;;;4.20;;
10469;SDS011;5282;47.052;15.458;2023-05-10T05:29:50;4.33;;;4.13;;
10469;SDS011;5282;47.052;15.458;2023-05-10T05:32:18;4.97;;;4.50;;
10469;SDS011;5282;47.052;15.458;2023-05-10T05:34:45;5.00;;;4.80;;
10469;SDS011;5282;47.052;15.458;2023-05-10T05:37:12;5.17;;;4.77;;
10469;SDS011;5282;47.052;15.458;2023-05-10T05:39:40;5.07;;;4.80;;
10469;SDS011;5282;47.052;15.458;2023-05-10T05:42:07;4.63;;;4.40;;
10469;SDS011;5282;47.052;15.458;2023-05-10T05:44:34;5.13;;;4.83;;
10469;SDS011;5282;47.052;15.458;2023-05-10T05:47:03;5.20;;;4.90;;
10469;SDS011;5282;47.052;15.458;2023-05-10T05:49:30;4.83;;;4.53;;
10469;SDS011;5282;47.052;15.458;2023-05-10T05:51:58;4.60;;;4.40;;
10469;SDS011;5282;47.052;15.458;2023-05-10T05:54:25;4.83;;;4.50;;
10469;SDS011;5282;47.052;15.458;2023-05-10T05:56:53;4.83;;;4.53;;
10469;SDS011;5282;47.052;15.458;2023-05-10T05:59:20;4.60;;;4.40;;
10469;SDS011;5282;47.052;15.458;2023-05-10T06:01:47;5.10;;;4.90;;
10469;SDS011;5282;47.052;15.458;2023-05-10T06:04:15;5.07;;;4.67;;
10469;SDS011;5282;47.052;15.458;2023-05-10T06:06:43;5.27;;;4.93;;
10469;SDS011;5282;47.052;15.458;2023-05-10T06:09:10;5.50;;;5.10;;
10469;SDS011;5282;47.052;15.458;2023-05-10T06:11:37;5.67;;;5.17;;
10469;SDS011;5282;47.052;15.458;2023-05-10T06:14:05;5.43;;;5.03;;
10469;SDS011;5282;47.052;15.458;2023-05-10T06:16:33;5.03;;;4.73;;
10469;SDS011;5282;47.052;15.458;2023-05-10T06:19:00;4.60;;;4.40;;
10469;SDS011;5282;47.052;15.458;2023-05-10T06:21:28;5.03;;;4.70;;
10469;SDS011;5282;47.052;15.458;2023-05-10T06:23:55;5.23;;;5.03;;
10469;SDS011;5282;47.052;15.458;2023-05-10T06:26:22;5.47;;;5.17;;
10469;SDS011;5282;47.052;15.458;2023-05-10T06:28:49;5.20;;;5.00;;
10469;SDS011;5282;47.052;15.458;2023-05-10T06:31:15;4.90;;;4.60;;
10469;SDS011;5282;47.052;15.458;2023-05-10T06:33:42;5.27;;;4.87;;
10469;SDS011;5282;47.052;15.458;2023-05-10T06:36:10;5.47;;;5.10;;
10469;SDS011;5282;47.052;15.458;2023-05-10T06:38:38;6.00;;;5.60;;
10469;SDS011;5282;47.052;15.458;2023-05-10T06:41:05;5.23;;;4.93;;
10469;SDS011;5282;47.052;15.458;2023-05-10T06:43:32;5.10;;;4.70;;
10469;SDS011;5282;47.052;15.458;2023-05-10T06:45:58;5.27;;;5.00;;
10469;SDS011;5282;47.052;15.458;2023-05-10T06:48:25;5.37;;;5.07;;
10469;SDS011;5282;47.052;15.458;2023-05-10T06:50:52;5.93;;;5.60;;
10469;SDS011;5282;47.052;15.458;2023-05-10T06:53:19;5.60;;;5.20;;
10469;SDS011;5282;47.052;15.458;2023-05-10T06:55:47;5.63;;;5.27;;
10469;SDS011;5282;47.052;15.458;2023-05-10T06:58:15;5.57;;;5.27;;
10469;SDS011;5282;47.052;15.458;2023-05-10T07:00:42;5.87;;;5.43;;
10469;SDS011;5282;47.052;15.458;2023-05-10T07:03:10;5.10;;;4.90;;
10469;SDS011;5282;47.052;15.458;2023-05-10T07:05:37;5.60;;;5.10;;
10469;SDS011;5282;47.052;15.458;2023-05-10T07:08:04;5.30;;;5.00;;
10469;SDS011;5282;47.052;15.458;2023-05-10T07:10:31;6.10;;;5.70;;
10469;SDS011;5282;47.052;15.458;2023-05-10T07:13:00;5.80;;;5.40;;
10469;SDS011;5282;47.052;15.458;2023-05-10T07:15:27;5.13;;;4.80;;
10469;SDS011;5282;47.052;15.458;2023-05-10T07:17:54;5.33;;;5.03;;
10469;SDS011;5282;47.052;15.458;2023-05-10T07:20:22;5.47;;;5.17;;
10469;SDS011;5282;47.052;15.458;2023-05-10T07:22:48;5.27;;;4.97;;
10469;SDS011;5282;47.052;15.458;2023-05-10T07:25:15;5.17;;;4.90;;
10469;SDS011;5282;47.052;15.458;2023-05-10T07:27:42;5.43;;;5.13;;
10469;SDS011;5282;47.052;15.458;2023-05-10T07:30:11;5.50;;;5.20;;
10469;SDS011;5282;47.052;15.458;2023-05-10T07:32:39;5.43;;;5.13;;
10469;SDS011;5282;47.052;15.458;2023-05-10T07:35:07;5.63;;;5.33;;
10469;SDS011;5282;47.052;15.458;2023-05-10T07:37:34;5.17;;;4.80;;
10469;SDS011;5282;47.052;15.458;2023-05-10T07:40:01;5.50;;;5.20;;
10469;SDS011;5282;47.052;15.458;2023-05-10T07:42:28;5.60;;;5.30;;
10469;SDS011;5282;47.052;15.458;2023-05-10T07:44:56;4.87;;;4.60;;
10469;SDS011;5282;47.052;15.458;2023-05-10T07:47:24;5.60;;;5.30;;
10469;SDS011;5282;47.052;15.458;2023-05-10T07:49:51;5.10;;;4.80;;
10469;SDS011;5282;47.052;15.458;2023-05-10T07:52:18;5.47;;;5.00;;
10469;SDS011;5282;47.052;15.458;2023-05-10T07:54:45;5.73;;;5.23;;
10469;SDS011;5282;47.052;15.458;2023-05-10T07:57:12;5.50;;;5.20;;
10469;SDS011;5282;47.052;15.458;2023-05-10T07:59:43;5.80;;;5.30;;
10469;SDS011;5282;47.052;15.458;2023-05-10T08:02:10;5.50;;;5.20;;
10469;SDS011;5282;47.052;15.458;2023-05-10T08:04:39;5.77;;;5.20;;
10469;SDS011;5282;47.052;15.458;2023-05-10T08:07:05;5.23;;;4.83;;
10469;SDS011;5282;47.052;15.458;2023-05-10T08:09:32;5.40;;;5.20;;
10469;SDS011;5282;47.052;15.458;2023-05-10T08:11:59;5.57;;;5.20;;
10469;SDS011;5282;47.052;15.458;2023-05-10T08:14:27;6.10;;;5.50;;
10469;SDS011;5282;47.052;15.458;2023-05-10T08:16:54;5.57;;;5.27;;
10469;SDS011;5282;47.052;15.458;2023-05-10T08:19:21;5.87;;;5.47;;
10469;SDS011;5282;47.052;15.458;2023-05-10T08:21:50;5.60;;;5.30;;
10469;SDS011;5282;47.052;15.458;2023-05-10T08:24:18;5.93;;;5.43;;
10469;SDS011;5282;47.052;15.458;2023-05-10T08:26:47;5.70;;;5.33;;
10469;SDS011;5282;47.052;15.458;2023-05-10T08:29:14;5.40;;;5.10;;
10469;SDS011;5282;47.052;15.458;2023-05-10T08:31:41;6.17;;;5.83;;
10469;SDS011;5282;47.052;15.458;2023-05-10T08:34:08;5.60;;;5.30;;
10469;SDS011;5282;47.052;15.458;2023-05-10T08:36:34;7.40;;;5.20;;
10469;SDS011;5282;47.052;15.458;2023-05-10T08:39:03;6.03;;;5.63;;
10469;SDS011;5282;47.052;15.458;2023-05-10T08:41:30;6.17;;;5.73;;
10469;SDS011;5282;47.052;15.458;2023-05-10T08:43:59;5.30;;;5.00;;
10469;SDS011;5282;47.052;15.458;2023-05-10T08:46:30;5.40;;;5.10;;
10469;SDS011;5282;47.052;15.458;2023-05-10T08:48:59;5.33;;;4.90;;
10469;SDS011;5282;47.052;15.458;2023-05-10T08:51:30;4.80;;;4.50;;
10469;SDS011;5282;47.052;15.458;2023-05-10T08:54:03;5.40;;;4.97;;
10469;SDS011;5282;47.052;15.458;2023-05-10T08:56:31;5.43;;;5.03;;
10469;SDS011;5282;47.052;15.458;2023-05-10T08:58:58;4.70;;;4.40;;
10469;SDS011;5282;47.052;15.458;2023-05-10T09:01:24;4.67;;;4.40;;
10469;SDS011;5282;47.052;15.458;2023-05-10T09:03:55;4.67;;;4.47;;
10469;SDS011;5282;47.052;15.458;2023-05-10T09:06:22;5.17;;;4.87;;
10469;SDS011;5282;47.052;15.458;2023-05-10T09:08:49;5.63;;;5.23;;
10469;SDS011;5282;47.052;15.458;2023-05-10T09:11:17;4.57;;;4.37;;
10469;SDS011;5282;47.052;15.458;2023-05-10T09:13:46;4.67;;;4.37;;
10469;SDS011;5282;47.052;15.458;2023-05-10T09:16:14;5.83;;;5.47;;
10469;SDS011;5282;47.052;15.458;2023-05-10T09:18:41;5.07;;;4.77;;
10469;SDS011;5282;47.052;15.458;2023-05-10T09:21:08;4.60;;;4.30;;
10469;SDS011;5282;47.052;15.458;2023-05-10T09:23:36;4.83;;;4.53;;
10469;SDS011;5282;47.052;15.458;2023-05-10T09:26:03;5.23;;;4.53;;
10469;SDS011;5282;47.052;15.458;2023-05-10T09:28:49;4.43;;;4.20;;
10469;SDS011;5282;47.052;15.458;2023-05-10T09:31:17;5.07;;;4.60;;
10469;SDS011;5282;47.052;15.458;2023-05-10T09:33:45;4.97;;;4.67;;
10469;SDS011;5282;47.052;15.458;2023-05-10T09:36:12;5.00;;;4.60;;
10469;SDS011;5282;47.052;15.458;2023-05-10T09:38:46;4.13;;;4.03;;
10469;SDS011;5282;47.052;15.458;2023-05-10T09:41:15;5.10;;;4.77;;
10469;SDS011;5282;47.052;15.458;2023-05-10T09:43:44;4.77;;;4.57;;
10469;SDS011;5282;47.052;15.458;2023-05-10T09:46:11;5.03;;;4.63;;
10469;SDS011;5282;47.052;15.458;2023-05-10T09:48:39;5.40;;;4.93;;
10469;SDS011;5282;47.052;15.458;2023-05-10T09:51:09;4.80;;;4.50;;
10469;SDS011;5282;47.052;15.458;2023-05-10T09:53:36;5.03;;;4.83;;
10469;SDS011;5282;47.052;15.458;2023-05-10T09:56:03;5.30;;;4.90;;
10469;SDS011;5282;47.052;15.458;2023-05-10T09:58:29;4.83;;;4.53;;
10469;SDS011;5282;47.052;15.458;2023-05-10T10:00:58;4.50;;;4.30;;
10469;SDS011;5282;47.052;15.458;2023-05-10T10:03:25;4.80;;;4.47;;
10469;SDS011;5282;47.052;15.458;2023-05-10T10:05:52;4.60;;;4.30;;
10469;SDS011;5282;47.052;15.458;2023-05-10T10:08:21;5.47;;;5.20;;
10469;SDS011;5282;47.052;15.458;2023-05-10T10:10:48;4.37;;;4.17;;
10469;SDS011;5282;47.052;15.458;2023-05-10T10:13:15;5.20;;;4.83;;
10469;SDS011;5282;47.052;15.458;2023-05-10T10:15:42;3.83;;;3.73;;
10469;SDS011;5282;47.052;15.458;2023-05-10T10:18:13;4.90;;;4.70;;
10469;SDS011;5282;47.052;15.458;2023-05-10T10:20:40;4.50;;;4.30;;
10469;SDS011;5282;47.052;15.458;2023-05-10T10:23:08;4.30;;;4.10;;
10469;SDS011;5282;47.052;15.458;2023-05-10T10:25:35;4.67;;;4.47;;
10469;SDS011;5282;47.052;15.458;2023-05-10T10:28:09;4.50;;;4.30;;
10469;SDS011;5282;47.052;15.458;2023-05-10T10:30:44;4.47;;;4.17;;
10469;SDS011;5282;47.052;15.458;2023-05-10T10:36:18;4.27;;;4.07;;
10469;SDS011;5282;47.052;15.458;2023-05-10T10:38:55;4.93;;;4.73;;
10469;SDS011;5282;47.052;15.458;2023-05-10T10:41:28;4.60;;;4.30;;
10469;SDS011;5282;47.052;15.458;2023-05-10T10:46:58;5.40;;;5.10;;
10469;SDS011;5282;47.052;15.458;2023-05-10T10:49:30;5.43;;;5.07;;
10469;SDS011;5282;47.052;15.458;2023-05-10T10:54:52;5.27;;;4.87;;
10469;SDS011;5282;47.052;15.458;2023-05-10T10:57:21;4.50;;;4.20;;
10469;SDS011;5282;47.052;15.458;2023-05-10T10:59:48;4.63;;;4.37;;
10469;SDS011;5282;47.052;15.458;2023-05-10T11:02:34;4.00;;;3.87;;
10469;SDS011;5282;47.052;15.458;2023-05-10T11:05:34;5.17;;;4.97;;
10469;SDS011;5282;47.052;15.458;2023-05-10T11:08:07;5.93;;;5.73;;
10469;SDS011;5282;47.052;15.458;2023-05-10T11:10:35;5.60;;;5.20;;
10469;SDS011;5282;47.052;15.458;2023-05-10T11:13:03;4.60;;;4.40;;
10469;SDS011;5282;47.052;15.458;2023-05-10T11:15:34;4.80;;;4.60;;
10469;SDS011;5282;47.052;15.458;2023-05-10T11:18:16;4.80;;;4.50;;
10469;SDS011;5282;47.052;15.458;2023-05-10T11:20:46;5.63;;;5.33;;
10469;SDS011;5282;47.052;15.458;2023-05-10T11:23:17;5.03;;;4.77;;
10469;SDS011;5282;47.052;15.458;2023-05-10T11:25:45;4.57;;;4.37;;
10469;SDS011;5282;47.052;15.458;2023-05-10T11:28:12;4.00;;;3.90;;
10469;SDS011;5282;47.052;15.458;2023-05-10T11:30:39;4.70;;;4.40;;
10469;SDS011;5282;47.052;15.458;2023-05-10T11:33:07;4.50;;;4.40;;
10469;SDS011;5282;47.052;15.458;2023-05-10T11:35:38;4.70;;;4.50;;
10469;SDS011;5282;47.052;15.458;2023-05-10T11:38:07;5.40;;;5.00;;
10469;SDS011;5282;47.052;15.458;2023-05-10T11:40:36;4.80;;;4.50;;
10469;SDS011;5282;47.052;15.458;2023-05-10T11:43:04;4.87;;;4.67;;
10469;SDS011;5282;47.052;15.458;2023-05-10T11:45:31;4.90;;;4.70;;
10469;SDS011;5282;47.052;15.458;2023-05-10T11:47:58;4.77;;;4.50;;
10469;SDS011;5282;47.052;15.458;2023-05-10T11:50:27;5.33;;;5.13;;
10469;SDS011;5282;47.052;15.458;2023-05-10T11:52:54;5.00;;;4.70;;
10469;SDS011;5282;47.052;15.458;2023-05-10T11:55:23;4.77;;;4.57;;
10469;SDS011;5282;47.052;15.458;2023-05-10T11:57:51;5.00;;;4.70;;
10469;SDS011;5282;47.052;15.458;2023-05-10T12:00:19;4.87;;;4.40;;
10469;SDS011;5282;47.052;15.458;2023-05-10T12:02:46;4.43;;;4.13;;
10469;SDS011;5282;47.052;15.458;2023-05-10T12:05:13;4.70;;;4.40;;
10469;SDS011;5282;47.052;15.458;2023-05-10T12:07:40;4.40;;;4.20;;
10469;SDS011;5282;47.052;15.458;2023-05-10T12:10:07;4.80;;;4.60;;
10469;SDS011;5282;47.052;15.458;2023-05-10T12:12:41;4.73;;;4.43;;
10469;SDS011;5282;47.052;15.458;2023-05-10T12:15:12;4.20;;;4.00;;
10469;SDS011;5282;47.052;15.458;2023-05-10T12:17:43;4.53;;;4.37;;
10469;SDS011;5282;47.052;15.458;2023-05-10T12:20:14;4.20;;;4.00;;
10469;SDS011;5282;47.052;15.458;2023-05-10T12:22:46;4.20;;;3.90;;
10469;SDS011;5282;47.052;15.458;2023-05-10T12:25:16;4.50;;;4.40;;
10469;SDS011;5282;47.052;15.458;2023-05-10T12:27:51;4.40;;;4.10;;
10469;SDS011;5282;47.052;15.458;2023-05-10T12:30:20;4.00;;;3.90;;
10469;SDS011;5282;47.052;15.458;2023-05-10T12:32:48;4.37;;;4.23;;
10469;SDS011;5282;47.052;15.458;2023-05-10T12:35:15;4.13;;;4.00;;
10469;SDS011;5282;47.052;15.458;2023-05-10T12:37:46;4.90;;;4.50;;
10469;SDS011;5282;47.052;15.458;2023-05-10T12:40:12;4.37;;;4.17;;
10469;SDS011;5282;47.052;15.458;2023-05-10T12:42:39;4.30;;;4.20;;
10469;SDS011;5282;47.052;15.458;2023-05-10T12:45:08;4.63;;;4.53;;
10469;SDS011;5282;47.052;15.458;2023-05-10T12:47:36;4.53;;;4.23;;
10469;SDS011;5282;47.052;15.458;2023-05-10T12:50:04;4.30;;;4.10;;
10469;SDS011;5282;47.052;15.458;2023-05-10T12:52:31;4.50;;;4.30;;
10469;SDS011;5282;47.052;15.458;2023-05-10T12:54:58;4.70;;;4.50;;
10469;SDS011;5282;47.052;15.458;2023-05-10T12:57:26;4.60;;;4.37;;
10469;SDS011;5282;47.052;15.458;2023-05-10T12:59:53;4.63;;;4.43;;
10469;SDS011;5282;47.052;15.458;2023-05-10T13:02:21;4.00;;;3.80;;
10469;SDS011;5282;47.052;15.458;2023-05-10T13:04:50;4.77;;;4.57;;
10469;SDS011;5282;47.052;15.458;2023-05-10T13:07:17;4.93;;;4.53;;
10469;SDS011;5282;47.052;15.458;2023-05-10T13:09:44;4.50;;;4.30;;
10469;SDS011;5282;47.052;15.458;2023-05-10T13:12:11;4.40;;;4.20;;
10469;SDS011;5282;47.052;15.458;2023-05-10T13:14:38;4.30;;;4.03;;
10469;SDS011;5282;47.052;15.458;2023-05-10T13:17:06;3.63;;;3.53;;
10469;SDS011;5282;47.052;15.458;2023-05-10T13:19:35;4.60;;;4.30;;
10469;SDS011;5282;47.052;15.458;2023-05-10T13:22:03;4.10;;;4.00;;
10469;SDS011;5282;47.052;15.458;2023-05-10T13:24:30;4.53;;;4.23;;
10469;SDS011;5282;47.052;15.458;2023-05-10T13:26:57;5.00;;;4.70;;
10469;SDS011;5282;47.052;15.458;2023-05-10T13:29:24;4.50;;;4.30;;
10469;SDS011;5282;47.052;15.458;2023-05-10T13:31:51;5.27;;;5.07;;
10469;SDS011;5282;47.052;15.458;2023-05-10T13:34:17;4.60;;;4.27;;
10469;SDS011;5282;47.052;15.458;2023-05-10T13:36:47;4.90;;;4.70;;
10469;SDS011;5282;47.052;15.458;2023-05-10T13:39:14;4.90;;;4.50;;
10469;SDS011;5282;47.052;15.458;2023-05-10T13:41:41;5.47;;;4.83;;
10469;SDS011;5282;47.052;15.458;2023-05-10T13:44:08;4.03;;;3.90;;
10469;SDS011;5282;47.052;15.458;2023-05-10T13:46:34;4.67;;;4.40;;
10469;SDS011;5282;47.052;15.458;2023-05-10T13:49:02;4.50;;;4.30;;
10469;SDS011;5282;47.052;15.458;2023-05-10T13:51:30;4.47;;;4.23;;
10469;SDS011;5282;47.052;15.458;2023-05-10T13:53:59;4.77;;;4.50;;
10469;SDS011;5282;47.052;15.458;2023-05-10T13:56:26;4.27;;;4.07;;
10469;SDS011;5282;47.052;15.458;2023-05-10T13:58:53;4.17;;;4.07;;
10469;SDS011;5282;47.052;15.458;2023-05-10T14:01:20;4.07;;;3.97;;
10469;SDS011;5282;47.052;15.458;2023-05-10T14:03:47;4.90;;;4.70;;
10469;SDS011;5282;47.052;15.458;2023-05-10T14:06:14;4.57;;;4.27;;
10469;SDS011;5282;47.052;15.458;2023-05-10T14:08:41;6.63;;;4.80;;
10469;SDS011;5282;47.052;15.458;2023-05-10T14:11:09;4.47;;;4.27;;
10469;SDS011;5282;47.052;15.458;2023-05-10T14:13:36;4.70;;;4.40;;
10469;SDS011;5282;47.052;15.458;2023-05-10T14:16:03;4.70;;;4.40;;
10469;SDS011;5282;47.052;15.458;2023-05-10T14:18:31;4.37;;;4.10;;
10469;SDS011;5282;47.052;15.458;2023-05-10T14:20:57;4.40;;;4.30;;
10469;SDS011;5282;47.052;15.458;2023-05-10T14:23:24;4.93;;;4.53;;
10469;SDS011;5282;47.052;15.458;2023-05-10T14:25:54;4.63;;;4.43;;
10469;SDS011;5282;47.052;15.458;2023-05-10T14:28:26;5.10;;;4.80;;
10469;SDS011;5282;47.052;15.458;2023-05-10T14:30:53;4.47;;;4.27;;
10469;SDS011;5282;47.052;15.458;2023-05-10T14:33:20;4.53;;;4.33;;
10469;SDS011;5282;47.052;15.458;2023-05-10T14:35:47;4.40;;;4.30;;
10469;SDS011;5282;47.052;15.458;2023-05-10T14:38:14;4.47;;;4.27;;
10469;SDS011;5282;47.052;15.458;2023-05-10T14:40:41;4.13;;;4.03;;
10469;SDS011;5282;47.052;15.458;2023-05-10T14:43:08;4.13;;;3.93;;
10469;SDS011;5282;47.052;15.458;2023-05-10T14:45:36;4.37;;;4.17;;
10469;SDS011;5282;47.052;15.458;2023-05-10T14:48:04;4.53;;;4.23;;
10469;SDS011;5282;47.052;15.458;2023-05-10T14:50:31;4.50;;;4.30;;
10469;SDS011;5282;47.052;15.458;2023-05-10T14:53:00;4.20;;;4.00;;
10469;SDS011;5282;47.052;15.458;2023-05-10T14:55:27;4.30;;;4.10;;
10469;SDS011;5282;47.052;15.458;2023-05-10T14:57:54;4.50;;;4.30;;
10469;SDS011;5282;47.052;15.458;2023-05-10T15:00:21;3.73;;;3.53;;
10469;SDS011;5282;47.052;15.458;2023-05-10T15:02:49;3.93;;;3.83;;
10469;SDS011;5282;47.052;15.458;2023-05-10T15:05:16;3.33;;;3.23;;
10469;SDS011;5282;47.052;15.458;2023-05-10T15:07:43;3.60;;;3.50;;